| time (UTC) | temp C | wind direction | speed KPH | gust KPH | rain 1hr cm | rain 24hr cm | rain mn cm | humidity % | barometer mb |
| 20260505122305 | 12 | 0 | 3.2 | 4.8 | 0.00 | 0.00 | 0.00 | 87 | 1012.9 |
| 20260505121804 | 12 | 0 | 1.6 | 4.8 | 0.00 | 0.00 | 0.00 | 87 | 1012.9 |
| 20260505120805 | 12 | 0 | 0.0 | 4.8 | 0.00 | 0.00 | 0.00 | 88 | 1012.8 |
| 20260505120304 | 12 | 0 | 1.6 | 4.8 | 0.00 | 0.00 | 0.00 | 88 | 1012.9 |
| 20260505115805 | 12 | 0 | 1.6 | 4.8 | 0.00 | 0.00 | 0.00 | 88 | 1012.8 |
| 20260505115305 | 12 | 0 | 0.0 | 4.8 | 0.00 | 0.00 | 0.00 | 88 | 1012.8 |
| 20260505114805 | 12 | 0 | 1.6 | 4.8 | 0.00 | 0.00 | 0.00 | 88 | 1012.8 |
| 20260505114304 | 12 | 0 | 0.0 | 3.2 | 0.00 | 0.00 | 0.00 | 88 | 1012.8 |
| 20260505113804 | 12 | 0 | 1.6 | 4.8 | 0.00 | 0.00 | 0.00 | 88 | 1012.7 |
| 20260505113305 | 12 | 0 | 1.6 | 4.8 | 0.00 | 0.00 | 0.00 | 88 | 1012.7 |
| 20260505112804 | 12 | 0 | 0.0 | 4.8 | 0.00 | 0.00 | 0.00 | 88 | 1012.7 |
| 20260505112305 | 12 | 0 | 1.6 | 8.0 | 0.00 | 0.00 | 0.00 | 88 | 1012.6 |
| 20260505110804 | 12 | 0 | 1.6 | 4.8 | 0.00 | 0.00 | 0.00 | 88 | 1012.6 |
| 20260505110305 | 12 | 0 | 1.6 | 4.8 | 0.00 | 0.00 | 0.00 | 88 | 1012.5 |
| 20260505101805 | 12 | 0 | 1.6 | 4.8 | 0.00 | 0.00 | 0.00 | 88 | 1012.3 |
| 20260505101304 | 12 | 0 | 1.6 | 4.8 | 0.00 | 0.00 | 0.00 | 88 | 1012.2 |
| 20260505100304 | 12 | 0 | 0.0 | 1.6 | 0.00 | 0.00 | 0.00 | 88 | 1012.1 |
| 20260505095805 | 12 | 0 | 1.6 | 3.2 | 0.00 | 0.00 | 0.00 | 88 | 1012.1 |
| 20260505095305 | 12 | 0 | 1.6 | 3.2 | 0.00 | 0.00 | 0.00 | 88 | 1012.1 |
| 20260505094804 | 12 | 0 | 0.0 | 4.8 | 0.00 | 0.00 | 0.00 | 88 | 1012.1 |
| 20260505094304 | 12 | 0 | 0.0 | 4.8 | 0.00 | 0.00 | 0.00 | 87 | 1012.0 |
| 20260505093805 | 12 | 0 | 0.0 | 3.2 | 0.00 | 0.00 | 0.00 | 87 | 1012.0 |
| 20260505093304 | 12 | 0 | 1.6 | 3.2 | 0.00 | 0.00 | 0.00 | 87 | 1011.9 |
| 20260505092805 | 12 | 0 | 0.0 | 1.6 | 0.00 | 0.00 | 0.00 | 87 | 1011.8 |
| 20260505092305 | 12 | 0 | 0.0 | 3.2 | 0.00 | 0.00 | 0.00 | 87 | 1011.8 |
| 20260505091805 | 12 | 0 | 0.0 | 0.0 | 0.00 | 0.00 | 0.00 | 87 | 1011.7 |
| 20260505090804 | 12 | 0 | 1.6 | 4.8 | 0.00 | 0.00 | 0.00 | 86 | 1011.7 |
| 20260505090304 | 12 | 0 | 1.6 | 3.2 | 0.00 | 0.00 | 0.00 | 86 | 1011.7 |
| 20260505085804 | 12 | 0 | 0.0 | 3.2 | 0.00 | 0.00 | 0.00 | 86 | 1011.7 |
| 20260505085305 | 12 | 0 | 0.0 | 1.6 | 0.00 | 0.00 | 0.00 | 86 | 1011.7 |
| 20260505084804 | 12 | 0 | 0.0 | 1.6 | 0.00 | 0.00 | 0.00 | 86 | 1011.7 |
| 20260505084304 | 12 | 0 | 0.0 | 1.6 | 0.00 | 0.00 | 0.00 | 86 | 1011.6 |
| 20260505083805 | 13 | 0 | 1.6 | 4.8 | 0.00 | 0.00 | 0.00 | 85 | 1011.6 |
| 20260505083306 | 13 | 0 | 0.0 | 3.2 | 0.00 | 0.00 | 0.00 | 85 | 1011.5 |
| 20260505082305 | 13 | 0 | 1.6 | 4.8 | 0.00 | 0.00 | 0.00 | 85 | 1011.5 |
| 20260505081804 | 13 | 0 | 0.0 | 1.6 | 0.00 | 0.00 | 0.00 | 85 | 1011.4 |
| 20260505081304 | 13 | 0 | 1.6 | 4.8 | 0.00 | 0.00 | 0.00 | 85 | 1011.4 |
| 20260505080804 | 13 | 0 | 1.6 | 8.0 | 0.00 | 0.00 | 0.00 | 84 | 1011.4 |
| 20260505075804 | 13 | 0 | 0.0 | 4.8 | 0.00 | 0.00 | 0.00 | 84 | 1011.3 |
| 20260505075304 | 13 | 0 | 0.0 | 4.8 | 0.00 | 0.00 | 0.00 | 84 | 1011.3 |
| 20260505074804 | 13 | 0 | 0.0 | 3.2 | 0.00 | 0.00 | 0.00 | 83 | 1011.3 |
| 20260505074305 | 13 | 0 | 0.0 | 3.2 | 0.00 | 0.00 | 0.00 | 83 | 1011.2 |
| 20260505073805 | 13 | 0 | 0.0 | 1.6 | 0.00 | 0.00 | 0.00 | 83 | 1011.3 |
| 20260505073304 | 13 | 0 | 0.0 | 1.6 | 0.00 | 0.00 | 0.00 | 83 | 1011.2 |
| 20260505072804 | 14 | 0 | 1.6 | 3.2 | 0.00 | 0.00 | 0.00 | 83 | 1011.1 |
| 20260505072305 | 14 | 0 | 0.0 | 3.2 | 0.00 | 0.00 | 0.00 | 82 | 1011.1 |
| 20260505071804 | 14 | 0 | 1.6 | 4.8 | 0.00 | 0.00 | 0.00 | 82 | 1011.0 |
| 20260505071304 | 14 | 0 | 1.6 | 3.2 | 0.00 | 0.00 | 0.00 | 81 | 1010.9 |
| 20260505070804 | 14 | 0 | 0.0 | 1.6 | 0.00 | 0.00 | 0.00 | 81 | 1010.9 |
| 20260505070305 | 15 | 0 | 1.6 | 3.2 | 0.00 | 0.00 | 0.00 | 81 | 1010.8 |
| 20260505065804 | 15 | 0 | 0.0 | 4.8 | 0.00 | 0.00 | 0.00 | 81 | 1010.8 |
| 20260505065304 | 15 | 0 | 1.6 | 4.8 | 0.00 | 0.00 | 0.00 | 80 | 1010.7 |
| 20260505064805 | 15 | 0 | 0.0 | 3.2 | 0.00 | 0.00 | 0.00 | 80 | 1010.7 |
| 20260505064304 | 15 | 0 | 0.0 | 4.8 | 0.00 | 0.00 | 0.00 | 79 | 1010.6 |
| 20260505063805 | 15 | 0 | 1.6 | 4.8 | 0.00 | 0.00 | 0.00 | 79 | 1010.6 |
| 20260505063304 | 15 | 0 | 1.6 | 4.8 | 0.00 | 0.00 | 0.00 | 79 | 1010.6 |
| 20260505062804 | 16 | 0 | 1.6 | 4.8 | 0.00 | 0.00 | 0.00 | 78 | 1010.5 |
| 20260505062304 | 16 | 0 | 0.0 | 3.2 | 0.00 | 0.00 | 0.00 | 78 | 1010.5 |
| 20260505061804 | 16 | 0 | 0.0 | 4.8 | 0.00 | 0.00 | 0.00 | 77 | 1010.4 |
| 20260505060804 | 16 | 0 | 3.2 | 8.0 | 0.00 | 0.00 | 0.00 | 77 | 1010.3 |
| 20260505054304 | 17 | 0 | 0.0 | 0.0 | 0.00 | 0.00 | 0.00 | 74 | 1010.0 |
| 20260505053805 | 17 | 0 | 0.0 | 0.0 | 0.00 | 0.00 | 0.00 | 74 | 1009.9 |
| 20260505053304 | 17 | 0 | 0.0 | 0.0 | 0.00 | 0.00 | 0.00 | 74 | 1009.9 |
| 20260505052804 | 17 | 0 | 0.0 | 0.0 | 0.00 | 0.00 | 0.00 | 74 | 1009.8 |
| 20260505052305 | 17 | 0 | 0.0 | 0.0 | 0.00 | 0.00 | 0.00 | 73 | 1009.7 |
| 20260505051804 | 17 | 0 | 1.6 | 3.2 | 0.00 | 0.00 | 0.00 | 72 | 1009.7 |
| 20260505051304 | 17 | 0 | 0.0 | 3.2 | 0.00 | 0.00 | 0.00 | 72 | 1009.7 |
| 20260505050804 | 17 | 0 | 0.0 | 1.6 | 0.00 | 0.00 | 0.00 | 72 | 1009.6 |
| 20260505041304 | 19 | 0 | 0.0 | 0.0 | 0.00 | 0.00 | 0.00 | 66 | 1009.1 |
| 20260505040804 | 19 | 0 | 0.0 | 0.0 | 0.00 | 0.00 | 0.00 | 64 | 1009.0 |
| 20260505040304 | 19 | 0 | 0.0 | 0.0 | 0.00 | 0.00 | 0.00 | 64 | 1009.0 |
| 20260505035805 | 20 | 0 | 0.0 | 0.0 | 0.00 | 0.00 | 0.00 | 64 | 1008.9 |
| 20260505035304 | 20 | 0 | 0.0 | 0.0 | 0.00 | 0.00 | 0.00 | 63 | 1008.8 |
| 20260505034804 | 20 | 0 | 0.0 | 0.0 | 0.00 | 0.00 | 0.00 | 62 | 1008.7 |
| 20260505033804 | 20 | 0 | 0.0 | 0.0 | 0.00 | 0.00 | 0.00 | 61 | 1008.5 |
| 20260505033304 | 21 | 0 | 0.0 | 0.0 | 0.00 | 0.00 | 0.00 | 59 | 1008.5 |
| 20260505032804 | 21 | 0 | 0.0 | 0.0 | 0.00 | 0.00 | 0.00 | 59 | 1008.5 |
| 20260505031805 | 21 | 0 | 0.0 | 0.0 | 0.00 | 0.00 | 0.00 | 58 | 1008.4 |
| 20260505031304 | 21 | 0 | 0.0 | 0.0 | 0.00 | 0.00 | 0.00 | 56 | 1008.4 |
| 20260505030804 | 21 | 0 | 0.0 | 0.0 | 0.00 | 0.00 | 0.00 | 56 | 1008.3 |
| 20260505030305 | 22 | 0 | 0.0 | 0.0 | 0.00 | 0.00 | 0.00 | 56 | 1008.3 |
| 20260505025804 | 22 | 0 | 0.0 | 0.0 | 0.00 | 0.00 | 0.00 | 55 | 1008.2 |
| 20260505025305 | 22 | 0 | 0.0 | 0.0 | 0.00 | 0.00 | 0.00 | 54 | 1008.2 |
| 20260505024804 | 22 | 0 | 0.0 | 0.0 | 0.00 | 0.00 | 0.00 | 54 | 1008.1 |
| 20260505024304 | 22 | 0 | 0.0 | 0.0 | 0.00 | 0.00 | 0.00 | 53 | 1008.1 |
| 20260505023804 | 22 | 0 | 0.0 | 0.0 | 0.00 | 0.00 | 0.00 | 52 | 1008.1 |
| 20260505023304 | 23 | 0 | 0.0 | 0.0 | 0.00 | 0.00 | 0.00 | 51 | 1008.0 |
| 20260505022804 | 23 | 0 | 0.0 | 0.0 | 0.00 | 0.00 | 0.00 | 51 | 1008.0 |
| 20260505022304 | 23 | 0 | 0.0 | 1.6 | 0.00 | 0.00 | 0.00 | 50 | 1008.0 |
| 20260505021804 | 23 | 0 | 0.0 | 0.0 | 0.00 | 0.00 | 0.00 | 49 | 1008.0 |
| 20260505021304 | 23 | 0 | 0.0 | 0.0 | 0.00 | 0.00 | 0.00 | 49 | 1008.0 |
| 20260505020305 | 24 | 0 | 0.0 | 0.0 | 0.00 | 0.00 | 0.00 | 48 | 1008.0 |
| 20260505015804 | 24 | 0 | 0.0 | 1.6 | 0.00 | 0.00 | 0.00 | 48 | 1008.0 |
| 20260505015304 | 25 | 0 | 0.0 | 1.6 | 0.00 | 0.00 | 0.00 | 48 | 1008.0 |
| 20260505014804 | 25 | 0 | 0.0 | 1.6 | 0.00 | 0.00 | 0.00 | 48 | 1008.0 |
| 20260505013304 | 25 | 0 | 0.0 | 1.6 | 0.00 | 0.00 | 0.00 | 45 | 1008.0 |
| 20260505012804 | 25 | 0 | 0.0 | 1.6 | 0.00 | 0.00 | 0.00 | 46 | 1008.0 |
| 20260505012304 | 25 | 0 | 0.0 | 3.2 | 0.00 | 0.00 | 0.00 | 45 | 1008.0 |
| 20260505011804 | 25 | 0 | 0.0 | 1.6 | 0.00 | 0.00 | 0.00 | 44 | 1008.0 |
| 20260505011304 | 25 | 0 | 0.0 | 3.2 | 0.00 | 0.00 | 0.00 | 40 | 1008.0 |
| 20260505010805 | 25 | 0 | 0.0 | 0.0 | 0.00 | 0.00 | 0.00 | 41 | 1008.0 |
| 20260505010305 | 26 | 0 | 0.0 | 1.6 | 0.00 | 0.00 | 0.00 | 41 | 1008.0 |
| 20260505005804 | 26 | 0 | 0.0 | 4.8 | 0.00 | 0.00 | 0.00 | 40 | 1008.1 |
| 20260505005304 | 26 | 0 | 1.6 | 4.8 | 0.00 | 0.00 | 0.00 | 41 | 1008.0 |
| 20260505004804 | 26 | 0 | 1.6 | 8.0 | 0.00 | 0.00 | 0.00 | 42 | 1008.0 |
| 20260505004304 | 26 | 217 | 1.6 | 4.8 | 0.00 | 0.00 | 0.00 | 42 | 1008.0 |
| 20260505003805 | 26 | 217 | 0.0 | 4.8 | 0.00 | 0.00 | 0.00 | 41 | 1008.0 |
| 20260505003304 | 26 | 356 | 0.0 | 4.8 | 0.00 | 0.00 | 0.00 | 41 | 1008.1 |
| 20260505002804 | 26 | 220 | 0.0 | 4.8 | 0.00 | 0.00 | 0.00 | 41 | 1008.1 |
| 20260505002304 | 26 | 226 | 3.2 | 8.0 | 0.00 | 0.00 | 0.00 | 42 | 1008.1 |
| 20260505001804 | 26 | 0 | 0.0 | 3.2 | 0.00 | 0.00 | 0.00 | 42 | 1008.1 |
| 20260505001305 | 26 | 0 | 1.6 | 9.7 | 0.00 | 0.00 | 0.00 | 41 | 1008.1 |
| 20260505000803 | 26 | 0 | 0.0 | 3.2 | 0.00 | 0.00 | 0.00 | 42 | 1008.1 |
| 20260505000304 | 26 | 0 | 3.2 | 4.8 | 0.00 | 0.00 | 0.00 | 42 | 1008.2 |
| 20260504235804 | 26 | 211 | 1.6 | 8.0 | 0.00 | 0.00 | 0.00 | 42 | 1008.2 |
| 20260504234804 | 26 | 207 | 3.2 | 4.8 | 0.00 | 0.00 | 0.00 | 42 | 1008.2 |
| 20260504234304 | 26 | 214 | 1.6 | 9.7 | 0.00 | 0.00 | 0.00 | 42 | 1008.3 |
| 20260504233806 | 26 | 215 | 1.6 | 8.0 | 0.00 | 0.00 | 0.00 | 41 | 1008.3 |
| 20260504233305 | 26 | 215 | 1.6 | 3.2 | 0.00 | 0.00 | 0.00 | 39 | 1008.4 |
| 20260504232804 | 26 | 215 | 0.0 | 1.6 | 0.00 | 0.00 | 0.00 | 41 | 1008.3 |
| 20260504231804 | 26 | 205 | 1.6 | 9.7 | 0.00 | 0.00 | 0.00 | 42 | 1008.4 |
| 20260504231304 | 26 | 196 | 1.6 | 4.8 | 0.00 | 0.00 | 0.00 | 41 | 1008.3 |
| 20260504230804 | 26 | 124 | 1.6 | 8.0 | 0.00 | 0.00 | 0.00 | 39 | 1008.3 |
| 20260504230305 | 26 | 215 | 1.6 | 4.8 | 0.00 | 0.00 | 0.00 | 40 | 1008.4 |
| 20260504225804 | 26 | 207 | 0.0 | 3.2 | 0.00 | 0.00 | 0.00 | 40 | 1008.3 |
| 20260504225305 | 27 | 207 | 1.6 | 8.0 | 0.00 | 0.00 | 0.00 | 40 | 1008.5 |
| 20260504224804 | 27 | 205 | 4.8 | 8.0 | 0.00 | 0.00 | 0.00 | 39 | 1008.5 |
| 20260504224304 | 27 | 226 | 1.6 | 3.2 | 0.00 | 0.00 | 0.00 | 40 | 1008.5 |
| 20260504223804 | 27 | 226 | 0.0 | 4.8 | 0.00 | 0.00 | 0.00 | 41 | 1008.6 |
| 20260504222804 | 26 | 210 | 1.6 | 9.7 | 0.00 | 0.00 | 0.00 | 42 | 1008.6 |
| 20260504222305 | 26 | 269 | 1.6 | 9.7 | 0.00 | 0.00 | 0.00 | 44 | 1008.8 |
| 20260504221304 | 26 | 211 | 3.2 | 11.3 | 0.00 | 0.00 | 0.00 | 43 | 1008.9 |
| 20260504220804 | 26 | 212 | 4.8 | 11.3 | 0.00 | 0.00 | 0.00 | 42 | 1009.0 |
| 20260504220305 | 26 | 159 | 3.2 | 9.7 | 0.00 | 0.00 | 0.00 | 43 | 1009.0 |
| 20260504215804 | 26 | 190 | 0.0 | 8.0 | 0.00 | 0.00 | 0.00 | 42 | 1009.1 |
| 20260504215305 | 26 | 214 | 3.2 | 4.8 | 0.00 | 0.00 | 0.00 | 44 | 1009.1 |
| 20260504214805 | 26 | 231 | 1.6 | 4.8 | 0.00 | 0.00 | 0.00 | 44 | 1009.1 |
| 20260504214304 | 26 | 229 | 1.6 | 8.0 | 0.00 | 0.00 | 0.00 | 44 | 1009.2 |
| 20260504213305 | 26 | 202 | 0.0 | 9.7 | 0.00 | 0.00 | 0.00 | 44 | 1009.2 |
| 20260504212804 | 26 | 205 | 4.8 | 11.3 | 0.00 | 0.00 | 0.00 | 42 | 1009.2 |
| 20260504212304 | 26 | 232 | 1.6 | 4.8 | 0.00 | 0.00 | 0.00 | 42 | 1009.3 |
| 20260504211804 | 26 | 221 | 3.2 | 4.8 | 0.00 | 0.00 | 0.00 | 38 | 1009.3 |
| 20260504211303 | 26 | 190 | 1.6 | 9.7 | 0.00 | 0.00 | 0.00 | 40 | 1009.2 |
| 20260504210804 | 25 | 135 | 0.0 | 4.8 | 0.00 | 0.00 | 0.00 | 40 | 1009.2 |
| 20260504210305 | 25 | 89 | 3.2 | 8.0 | 0.00 | 0.00 | 0.00 | 38 | 1009.3 |
| 20260504205806 | 25 | 127 | 4.8 | 11.3 | 0.00 | 0.00 | 0.00 | 39 | 1009.3 |
| 20260504204804 | 25 | 126 | 1.6 | 11.3 | 0.00 | 0.00 | 0.00 | 39 | 1009.4 |
| 20260504204304 | 25 | 129 | 4.8 | 12.9 | 0.00 | 0.00 | 0.00 | 38 | 1009.4 |
| 20260504203804 | 25 | 189 | 3.2 | 4.8 | 0.00 | 0.00 | 0.00 | 38 | 1009.3 |
| 20260504203304 | 25 | 199 | 3.2 | 4.8 | 0.00 | 0.00 | 0.00 | 39 | 1009.3 |
| 20260504202803 | 25 | 220 | 3.2 | 4.8 | 0.00 | 0.00 | 0.00 | 38 | 1009.4 |
| 20260504202305 | 25 | 270 | 3.2 | 9.7 | 0.00 | 0.00 | 0.00 | 38 | 1009.4 |
| 20260504201805 | 25 | 201 | 1.6 | 11.3 | 0.00 | 0.00 | 0.00 | 40 | 1009.4 |
| 20260504200804 | 25 | 162 | 3.2 | 4.8 | 0.00 | 0.00 | 0.00 | 38 | 1009.4 |
| 20260504195804 | 24 | 155 | 1.6 | 12.9 | 0.00 | 0.00 | 0.00 | 40 | 1009.6 |
| 20260504195304 | 24 | 84 | 3.2 | 11.3 | 0.00 | 0.00 | 0.00 | 40 | 1009.5 |
| 20260504194804 | 24 | 100 | 3.2 | 4.8 | 0.00 | 0.00 | 0.00 | 39 | 1009.4 |
| 20260504194304 | 24 | 116 | 4.8 | 12.9 | 0.00 | 0.00 | 0.00 | 41 | 1009.5 |
| 20260504193305 | 25 | 107 | 3.2 | 11.3 | 0.00 | 0.00 | 0.00 | 41 | 1009.4 |
| 20260504192805 | 25 | 106 | 3.2 | 9.7 | 0.00 | 0.00 | 0.00 | 44 | 1009.5 |
| 20260504192304 | 25 | 119 | 3.2 | 11.3 | 0.00 | 0.00 | 0.00 | 43 | 1009.5 |
| 20260504191804 | 25 | 111 | 3.2 | 9.7 | 0.00 | 0.00 | 0.00 | 43 | 1009.5 |
| 20260504191304 | 25 | 128 | 3.2 | 8.0 | 0.00 | 0.00 | 0.00 | 43 | 1009.6 |
| 20260504190805 | 25 | 223 | 3.2 | 11.3 | 0.00 | 0.00 | 0.00 | 41 | 1009.6 |
| 20260504190304 | 25 | 190 | 3.2 | 8.0 | 0.00 | 0.00 | 0.00 | 42 | 1009.5 |
| 20260504185304 | 24 | 192 | 1.6 | 4.8 | 0.00 | 0.00 | 0.00 | 40 | 1009.7 |
| 20260504184803 | 24 | 190 | 1.6 | 3.2 | 0.00 | 0.00 | 0.00 | 40 | 1009.8 |
| 20260504183804 | 23 | 211 | 1.6 | 3.2 | 0.00 | 0.00 | 0.00 | 43 | 1009.8 |
| 20260504183304 | 23 | 211 | 0.0 | 1.6 | 0.00 | 0.00 | 0.00 | 44 | 1009.8 |
| 20260504182804 | 23 | 211 | 3.2 | 14.5 | 0.00 | 0.00 | 0.00 | 44 | 1009.8 |
| 20260504182304 | 23 | 202 | 1.6 | 3.2 | 0.00 | 0.00 | 0.00 | 43 | 1009.8 |
| 20260504181304 | 23 | 207 | 0.0 | 4.8 | 0.00 | 0.00 | 0.00 | 46 | 1009.8 |
| 20260504180805 | 22 | 207 | 0.0 | 4.8 | 0.00 | 0.00 | 0.00 | 45 | 1009.8 |
| 20260504180305 | 23 | 207 | 3.2 | 11.3 | 0.00 | 0.00 | 0.00 | 45 | 1009.8 |
| 20260504175803 | 23 | 200 | 3.2 | 9.7 | 0.00 | 0.00 | 0.00 | 45 | 1009.8 |
| 20260504175304 | 23 | 202 | 3.2 | 8.0 | 0.00 | 0.00 | 0.00 | 45 | 1009.8 |
| 20260504174803 | 23 | 115 | 0.0 | 4.8 | 0.00 | 0.00 | 0.00 | 51 | 1009.8 |
| 20260504173804 | 22 | 51 | 3.2 | 4.8 | 0.00 | 0.00 | 0.00 | 54 | 1009.8 |
| 20260504173304 | 22 | 199 | 1.6 | 4.8 | 0.00 | 0.00 | 0.00 | 56 | 1009.8 |
| 20260504172804 | 22 | 59 | 1.6 | 4.8 | 0.00 | 0.00 | 0.00 | 57 | 1009.8 |
| 20260504172304 | 22 | 137 | 1.6 | 4.8 | 0.00 | 0.00 | 0.00 | 58 | 1009.8 |
| 20260504171804 | 22 | 228 | 1.6 | 4.8 | 0.00 | 0.00 | 0.00 | 58 | 1009.8 |
| 20260504171304 | 21 | 122 | 1.6 | 8.0 | 0.00 | 0.00 | 0.00 | 59 | 1009.9 |
| 20260504170804 | 21 | 124 | 3.2 | 4.8 | 0.00 | 0.00 | 0.00 | 59 | 1009.9 |
| 20260504170305 | 21 | 125 | 1.6 | 9.7 | 0.00 | 0.00 | 0.00 | 60 | 1009.8 |
| 20260504160303 | 20 | 113 | 3.2 | 4.8 | 0.00 | 0.00 | 0.00 | 60 | 1009.6 |
| 20260504150803 | 16 | 0 | 1.6 | 3.2 | 0.00 | 0.00 | 0.00 | 72 | 1009.4 |
| 20260504150304 | 16 | 0 | 0.0 | 0.0 | 0.00 | 0.00 | 0.00 | 74 | 1009.3 |
| 20260504141304 | 12 | 0 | 1.6 | 3.2 | 0.00 | 0.00 | 0.00 | 85 | 1009.1 |
| 20260504140804 | 11 | 0 | 0.0 | 1.6 | 0.00 | 0.00 | 0.00 | 86 | 1009.1 |
| 20260504130805 | 11 | 0 | 0.0 | 0.0 | 0.00 | 0.00 | 0.00 | 84 | 1008.7 |
| 20260504130304 | 11 | 0 | 0.0 | 0.0 | 0.00 | 0.00 | 0.00 | 84 | 1008.6 |